Time;durP1;ratioP1;P1;durP2;ratioP2;P2;SDS_P1;SDS_P2;PMS_P1;PMS_P2;Temp;Humidity;BMP_temperature;BMP_pressure;BME280_temperature;BME280_humidity;BME280_pressure;Samples;Min_cycle;Max_cycle;Signal;HPM_P1;HPM_P2
2022/06/29 00:01:59;;;;;;;5.50;4.97;;;;;;;23.22;57.04;98639.00;6977327;28;20222;-80
2022/06/29 00:05:22;;;;;;;5.50;5.00;;;;;;;22.99;58.29;98637.00;6977264;28;20202;-80
2022/06/29 00:08:44;;;;;;;6.60;5.63;;;;;;;22.27;59.70;98636.16;6976702;28;20251;-80
2022/06/29 00:12:08;;;;;;;5.17;4.77;;;;;;;22.53;59.47;98608.25;6976475;28;20308;-80
2022/06/29 00:15:33;;;;;;;5.07;4.63;;;;;;;22.91;58.40;98612.06;6949547;28;20199;-80
2022/06/29 00:18:54;;;;;;;5.80;5.40;;;;;;;22.72;58.93;98614.69;6949441;28;20294;-80
2022/06/29 00:22:16;;;;;;;5.83;5.23;;;;;;;22.88;58.51;98591.44;6949322;28;20227;-80
2022/06/29 00:25:38;;;;;;;5.83;5.33;;;;;;;23.07;58.36;98600.59;6948973;28;20203;-80
2022/06/29 00:29:01;;;;;;;5.63;5.10;;;;;;;23.03;57.63;98602.31;6949179;28;20301;-80
2022/06/29 00:32:22;;;;;;;6.20;5.70;;;;;;;22.92;57.71;98603.53;6949133;28;20231;-80
2022/06/29 00:35:44;;;;;;;6.67;5.83;;;;;;;22.71;58.13;98596.56;6949230;28;20682;-80
2022/06/29 00:39:05;;;;;;;5.53;5.13;;;;;;;22.64;58.94;98590.56;6949045;28;20304;-82
2022/06/29 00:42:27;;;;;;;6.10;5.50;;;;;;;22.60;58.96;98584.00;6949711;28;20242;-80
2022/06/29 00:45:50;;;;;;;5.47;4.77;;;;;;;22.53;57.96;98557.97;6948896;28;20288;-80
2022/06/29 00:49:12;;;;;;;6.10;5.50;;;;;;;22.71;57.68;98593.00;6957743;28;20414;-80
2022/06/29 00:52:34;;;;;;;5.57;5.07;;;;;;;22.61;57.98;98571.88;6957940;28;20771;-80
2022/06/29 00:55:56;;;;;;;5.67;5.10;;;;;;;22.33;59.16;98589.13;6949761;28;20214;-80
2022/06/29 00:59:20;;;;;;;7.27;5.63;;;;;;;22.33;59.37;98585.56;6949329;28;20855;-80
2022/06/29 01:02:43;;;;;;;6.13;5.63;;;;;;;22.48;59.43;98566.25;6952522;28;20758;-79
2022/06/29 01:06:05;;;;;;;6.77;6.20;;;;;;;22.50;58.64;98577.78;6964013;28;20890;-80
2022/06/29 01:09:26;;;;;;;6.70;6.07;;;;;;;22.39;59.35;98574.25;6959308;28;20252;-80
2022/06/29 01:12:48;;;;;;;6.33;5.83;;;;;;;22.32;58.57;98578.44;6958999;28;20231;-81
2022/06/29 01:16:10;;;;;;;7.10;6.00;;;;;;;22.14;59.87;98573.63;6963177;28;20199;-80
2022/06/29 01:19:32;;;;;;;6.27;5.70;;;;;;;22.40;59.15;98553.91;6961249;28;20203;-79
2022/06/29 01:22:55;;;;;;;6.13;5.63;;;;;;;22.40;59.02;98581.41;6951083;28;20256;-79
2022/06/29 01:26:17;;;;;;;6.80;6.03;;;;;;;21.94;59.64;98554.50;6951379;28;20213;-80
2022/06/29 01:29:39;;;;;;;6.70;6.00;;;;;;;22.19;59.38;98551.63;6950810;28;20257;-79
2022/06/29 01:33:00;;;;;;;6.17;5.67;;;;;;;22.25;59.53;98564.22;6947387;28;20238;-80
2022/06/29 01:36:22;;;;;;;6.33;5.60;;;;;;;22.22;59.12;98557.34;6948685;28;20234;-80
2022/06/29 01:39:45;;;;;;;8.43;6.47;;;;;;;21.62;60.48;98576.91;6948211;28;20293;-80
2022/06/29 01:43:07;;;;;;;11.23;6.97;;;;;;;21.61;61.00;98574.44;6950634;28;20234;-80
2022/06/29 01:46:28;;;;;;;6.80;6.23;;;;;;;21.87;60.54;98570.47;6948826;28;20183;-81
2022/06/29 01:49:50;;;;;;;9.47;5.90;;;;;;;21.91;59.99;98563.31;6948203;28;20938;-80
2022/06/29 01:53:11;;;;;;;6.10;5.60;;;;;;;21.91;59.45;98546.84;6949332;28;20275;-80
2022/06/29 01:56:34;;;;;;;7.03;6.43;;;;;;;21.65;60.68;98557.13;6948235;28;20210;-80
2022/06/29 01:59:56;;;;;;;6.90;6.27;;;;;;;21.73;60.63;98577.69;6948548;28;20235;-80
2022/06/29 02:03:17;;;;;;;9.10;6.20;;;;;;;21.73;60.14;98551.06;6949110;28;20223;-81
2022/06/29 02:06:39;;;;;;;6.97;6.30;;;;;;;21.69;59.92;98557.41;6948805;28;20606;-80
2022/06/29 02:10:00;;;;;;;8.10;6.53;;;;;;;21.74;59.97;98582.09;6948598;28;20207;-80
2022/06/29 02:13:23;;;;;;;7.27;6.57;;;;;;;21.84;60.08;98560.88;6948363;28;20313;-80
2022/06/29 02:16:45;;;;;;;5.90;5.40;;;;;;;22.08;58.60;98548.09;6959089;28;20229;-80
2022/06/29 02:20:08;;;;;;;6.00;5.50;;;;;;;22.07;59.38;98557.44;6964756;28;20213;-80
2022/06/29 02:23:29;;;;;;;7.27;6.57;;;;;;;21.90;59.71;98534.25;6952204;28;20223;-80
2022/06/29 02:26:51;;;;;;;6.90;6.20;;;;;;;21.65;60.56;98559.06;6952538;28;20242;-80
2022/06/29 02:30:17;;;;;;;7.80;6.47;;;;;;;21.94;59.19;98551.75;6951175;28;20258;-80
2022/06/29 02:37:17;;;;;;;6.80;6.20;;;;;;;21.79;59.68;98541.72;6951227;28;20557;-80
2022/06/29 02:40:39;;;;;;;8.63;5.90;;;;;;;21.89;59.76;98549.06;6951368;28;20259;-80
2022/06/29 02:44:01;;;;;;;8.33;6.07;;;;;;;21.77;58.94;98549.41;6951068;28;20269;-80
2022/06/29 02:47:24;;;;;;;8.33;6.63;;;;;;;21.65;59.85;98543.41;6951002;28;20686;-81
2022/06/29 02:50:45;;;;;;;7.10;6.40;;;;;;;21.73;59.39;98548.31;6950844;28;20228;-79
2022/06/29 02:54:07;;;;;;;8.00;6.63;;;;;;;21.33;60.31;98518.31;6951202;28;20265;-80
2022/06/29 02:57:28;;;;;;;7.53;6.83;;;;;;;21.54;59.98;98539.06;6952054;28;20297;-81
2022/06/29 03:00:50;;;;;;;6.57;6.07;;;;;;;21.66;60.03;98558.75;6962301;28;20194;-82
2022/06/29 03:04:13;;;;;;;7.50;6.80;;;;;;;21.27;60.18;98563.31;6969345;28;20285;-81
2022/06/29 03:07:35;;;;;;;7.00;6.37;;;;;;;21.22;60.29;98512.34;6953391;28;20577;-82
2022/06/29 03:10:56;;;;;;;6.97;6.27;;;;;;;21.63;59.95;98547.53;6953258;28;20813;-81
2022/06/29 03:14:18;;;;;;;7.60;6.40;;;;;;;21.42;60.05;98537.75;6953112;28;20361;-81
2022/06/29 03:17:39;;;;;;;7.17;6.47;;;;;;;21.61;59.46;98563.47;6952882;28;20687;-82
2022/06/29 03:21:02;;;;;;;7.30;6.47;;;;;;;21.45;59.69;98559.13;6953097;28;20678;-82
2022/06/29 03:24:24;;;;;;;8.60;7.90;;;;;;;20.62;62.84;98537.09;6952326;28;20227;-81
2022/06/29 03:27:46;;;;;;;7.97;7.37;;;;;;;20.40;63.40;98501.00;6952029;28;20245;-82
2022/06/29 03:31:08;;;;;;;7.57;6.87;;;;;;;21.15;61.37;98487.94;6979778;28;20230;-81
2022/06/29 03:34:29;;;;;;;7.83;7.13;;;;;;;21.53;60.45;98531.94;6980226;28;20262;-81
2022/06/29 03:37:52;;;;;;;7.13;6.10;;;;;;;21.39;59.96;98516.38;6979472;28;20212;-82
2022/06/29 03:41:13;;;;;;;7.40;6.80;;;;;;;21.06;60.21;98546.38;6979856;28;20202;-81
2022/06/29 03:44:35;;;;;;;8.27;7.47;;;;;;;20.84;61.69;98522.00;6978412;28;20241;-81
2022/06/29 03:47:57;;;;;;;8.27;7.57;;;;;;;21.03;62.38;98534.06;6977244;28;20627;-82
2022/06/29 03:51:18;;;;;;;7.70;7.00;;;;;;;21.27;61.58;98540.56;6978049;28;20260;-81
2022/06/29 03:54:41;;;;;;;7.47;6.80;;;;;;;21.17;60.28;98508.50;6980380;28;20238;-81
2022/06/29 03:58:03;;;;;;;7.37;6.67;;;;;;;21.25;60.99;98537.28;6978565;28;20207;-81
2022/06/29 04:01:24;;;;;;;7.13;6.00;;;;;;;21.70;59.39;98534.34;6978922;28;20214;-81
2022/06/29 04:04:46;;;;;;;8.10;6.50;;;;;;;21.65;58.96;98539.84;6979141;28;20207;-82
2022/06/29 04:08:07;;;;;;;6.03;5.53;;;;;;;21.67;59.34;98546.69;6978741;28;20592;-81
2022/06/29 04:15:10;;;;;;;7.27;6.50;;;;;;;21.74;60.16;98529.94;6979025;28;20209;-81
2022/06/29 04:18:32;;;;;;;7.30;6.50;;;;;;;21.86;59.53;98516.69;6978525;28;20206;-82
2022/06/29 04:21:54;;;;;;;7.07;6.53;;;;;;;22.09;59.09;98548.94;6974816;28;20309;-82
2022/06/29 04:25:16;;;;;;;10.50;6.63;;;;;;;21.88;60.31;98539.16;6972013;28;20236;-82
2022/06/29 04:28:39;;;;;;;8.70;7.90;;;;;;;21.99;60.16;98535.25;6975003;28;20221;-82
2022/06/29 04:32:00;;;;;;;9.43;7.53;;;;;;;21.64;60.15;98524.47;6977108;28;20234;-81
2022/06/29 04:35:22;;;;;;;8.10;7.40;;;;;;;21.71;62.06;98533.25;6979302;28;20240;-81
2022/06/29 04:38:43;;;;;;;8.23;7.53;;;;;;;21.85;60.73;98517.78;6977198;28;20625;-81
2022/06/29 04:42:05;;;;;;;7.60;7.00;;;;;;;22.13;60.51;98550.81;6977825;28;20590;-81
2022/06/29 04:49:09;;;;;;;8.00;7.30;;;;;;;21.92;61.21;98541.09;6977157;28;20190;-81
2022/06/29 04:52:30;;;;;;;8.17;7.37;;;;;;;22.06;61.25;98541.28;6971499;28;20380;-81
2022/06/29 04:55:52;;;;;;;8.63;7.70;;;;;;;21.92;60.78;98527.38;6977332;28;20206;-81
2022/06/29 04:59:15;;;;;;;6.90;6.40;;;;;;;22.53;59.93;98538.75;6983570;28;20275;-81
2022/06/29 05:02:38;;;;;;;7.60;7.00;;;;;;;22.78;58.62;98544.81;6991039;28;20410;-81
2022/06/29 05:05:59;;;;;;;7.40;6.70;;;;;;;22.74;58.58;98551.16;6996276;28;20202;-82
2022/06/29 05:09:21;;;;;;;7.63;7.07;;;;;;;22.17;60.56;98532.66;6978073;28;20210;-81
2022/06/29 05:12:43;;;;;;;7.73;7.00;;;;;;;22.57;59.93;98542.53;6952805;28;20238;-81
2022/06/29 05:16:05;;;;;;;7.47;6.80;;;;;;;22.78;59.64;98550.28;6949495;28;20226;-81
2022/06/29 05:19:28;;;;;;;7.67;6.97;;;;;;;22.94;59.41;98528.97;6948842;28;20816;-80
2022/06/29 05:22:50;;;;;;;6.87;6.37;;;;;;;23.19;57.78;98548.00;6968456;28;20222;-81
2022/06/29 05:26:11;;;;;;;7.50;6.90;;;;;;;22.53;60.16;98523.06;6976449;28;20221;-81
2022/06/29 05:29:33;;;;;;;6.87;6.27;;;;;;;23.04;58.45;98540.69;6969273;28;20238;-81
2022/06/29 05:32:55;;;;;;;7.33;6.73;;;;;;;23.05;58.90;98530.50;6978404;28;20238;-80
2022/06/29 05:36:18;;;;;;;7.50;6.90;;;;;;;23.47;57.95;98558.94;6974897;28;20194;-80
2022/06/29 05:39:39;;;;;;;7.07;6.30;;;;;;;23.66;56.80;98539.72;6975089;28;20206;-80
2022/06/29 05:43:01;;;;;;;7.20;6.50;;;;;;;23.16;57.83;98507.28;6979487;28;20232;-81
2022/06/29 05:46:23;;;;;;;6.10;5.57;;;;;;;23.69;56.86;98539.94;6983179;28;20651;-82
2022/06/29 05:49:45;;;;;;;6.90;6.30;;;;;;;23.55;57.19;98549.22;6982361;28;20204;-81
2022/06/29 05:53:07;;;;;;;6.70;6.10;;;;;;;23.85;57.01;98551.56;6986053;28;20234;-82
2022/06/29 05:56:29;;;;;;;6.40;5.80;;;;;;;23.96;56.26;98525.53;6989735;28;20240;-80
2022/06/29 05:59:51;;;;;;;6.40;5.90;;;;;;;24.17;55.99;98535.13;6989103;28;20211;-80
2022/06/29 06:03:12;;;;;;;6.13;5.63;;;;;;;24.11;55.87;98541.81;6986540;28;20239;-81
2022/06/29 06:06:34;;;;;;;5.83;5.07;;;;;;;24.33;55.51;98544.78;6984584;28;20211;-81
2022/06/29 06:09:57;;;;;;;6.53;5.60;;;;;;;24.26;55.56;98550.66;6988173;28;20199;-81
2022/06/29 06:13:18;;;;;;;7.90;4.97;;;;;;;23.82;55.88;98480.53;6987242;28;20772;-81
2022/06/29 06:16:40;;;;;;;5.40;4.83;;;;;;;24.37;54.78;98532.06;6992110;28;20210;-82
2022/06/29 06:20:02;;;;;;;5.70;5.23;;;;;;;24.23;55.06;98533.91;6983374;28;20203;-81
2022/06/29 06:23:24;;;;;;;5.50;5.10;;;;;;;24.36;55.16;98541.47;6960321;28;20219;-82
2022/06/29 06:26:47;;;;;;;5.90;5.30;;;;;;;24.59;54.88;98546.88;6968100;28;20240;-81
2022/06/29 06:30:09;;;;;;;9.90;5.70;;;;;;;24.30;54.41;98488.34;6968616;28;20213;-82
2022/06/29 06:33:31;;;;;;;5.23;4.73;;;;;;;24.64;54.07;98535.75;6961441;28;20282;-81
2022/06/29 06:36:52;;;;;;;5.53;5.00;;;;;;;24.89;53.67;98537.25;6954032;28;20216;-81
2022/06/29 06:43:57;;;;;;;5.57;5.17;;;;;;;25.15;53.01;98532.88;6953545;28;20255;-81
2022/06/29 06:47:18;;;;;;;6.27;5.77;;;;;;;24.83;53.30;98530.19;6954343;28;20269;-82
2022/06/29 06:50:40;;;;;;;6.90;5.47;;;;;;;25.32;53.00;98546.94;6954513;28;20225;-82
2022/06/29 06:54:02;;;;;;;7.57;5.30;;;;;;;25.23;51.80;98476.97;6955216;28;20706;-82
2022/06/29 06:57:23;;;;;;;10.07;5.37;;;;;;;25.02;53.42;98548.28;6982159;28;20208;-81
2022/06/29 07:00:46;;;;;;;5.73;4.80;;;;;;;25.46;51.78;98544.97;6982286;28;20251;-81
2022/06/29 07:04:08;;;;;;;6.80;5.50;;;;;;;25.11;51.94;98535.44;6992914;28;20221;-82
2022/06/29 07:07:29;;;;;;;5.60;4.60;;;;;;;25.31;52.72;98559.09;6965425;28;20227;-81
2022/06/29 07:11:15;;;;;;;5.67;5.20;;;;;;;25.55;51.85;98551.44;6978366;28;20252;-82
2022/06/29 07:18:49;;;;;;;6.93;5.07;;;;;;;25.87;51.38;98543.00;6997373;28;20229;-79
2022/06/29 07:22:11;;;;;;;5.37;4.63;;;;;;;25.89;51.20;98549.84;6993519;28;20227;-80
2022/06/29 07:25:33;;;;;;;5.33;4.93;;;;;;;26.28;50.20;98560.31;6987783;28;20579;-80
2022/06/29 07:28:54;;;;;;;5.17;4.73;;;;;;;26.13;50.33;98558.72;6985693;28;20218;-80
2022/06/29 07:32:16;;;;;;;4.83;4.43;;;;;;;26.33;50.04;98513.19;6981848;28;20247;-80
2022/06/29 07:35:40;;;;;;;4.60;4.20;;;;;;;26.79;48.06;98506.22;6989639;28;20212;-80
2022/06/29 07:39:01;;;;;;;6.77;4.90;;;;;;;26.76;48.71;98564.13;6988370;28;20262;-80
2022/06/29 07:42:24;;;;;;;4.27;3.97;;;;;;;27.35;47.89;98569.22;6978763;28;20234;-80
2022/06/29 07:45:52;;;;;;;5.33;4.83;;;;;;;27.03;48.42;98547.38;6988681;28;20221;-80
2022/06/29 07:49:16;;;;;;;5.53;5.00;;;;;;;27.20;48.00;98550.25;6978370;28;20266;-80
2022/06/29 07:52:39;;;;;;;5.03;4.53;;;;;;;27.15;46.95;98542.88;6968427;28;20233;-80
2022/06/29 07:56:00;;;;;;;4.63;4.23;;;;;;;27.45;46.97;98549.53;6949765;28;20343;-80
2022/06/29 07:59:22;;;;;;;5.00;4.30;;;;;;;27.58;46.38;98532.00;6969387;28;20360;-80
2022/06/29 08:02:43;;;;;;;5.33;4.83;;;;;;;28.19;45.20;98529.84;6975463;28;20281;-80
2022/06/29 08:06:05;;;;;;;4.83;4.33;;;;;;;28.76;44.07;98511.88;6977190;28;20218;-80
2022/06/29 08:09:28;;;;;;;4.30;3.90;;;;;;;28.38;44.52;98546.19;6967269;28;20195;-80
2022/06/29 08:12:50;;;;;;;9.37;4.70;;;;;;;29.13;43.62;98533.34;6961448;28;20229;-79
2022/06/29 08:16:12;;;;;;;5.13;3.97;;;;;;;29.98;41.13;98521.00;6957686;28;20656;-80
2022/06/29 08:19:33;;;;;;;5.00;4.60;;;;;;;29.56;40.53;98522.09;6978177;28;20190;-81
2022/06/29 08:22:55;;;;;;;4.90;4.23;;;;;;;30.04;40.22;98511.31;6978812;28;20226;-80
2022/06/29 08:26:18;;;;;;;4.10;3.80;;;;;;;30.68;39.47;98527.38;6951855;28;20573;-80
2022/06/29 08:29:40;;;;;;;4.73;4.30;;;;;;;30.72;38.14;98531.06;6950886;28;20791;-80
2022/06/29 08:33:01;;;;;;;5.60;4.30;;;;;;;30.58;39.80;98529.69;6968019;28;20232;-81
2022/06/29 08:36:23;;;;;;;4.40;4.00;;;;;;;30.37;40.09;98473.28;6966632;28;20212;-80
2022/06/29 08:39:45;;;;;;;4.27;3.70;;;;;;;30.77;39.67;98514.16;6951461;28;20209;-80
2022/06/29 08:43:09;;;;;;;4.70;3.50;;;;;;;30.84;39.64;98494.91;6973409;28;20241;-80
2022/06/29 08:46:30;;;;;;;4.13;3.27;;;;;;;30.90;39.95;98504.66;6960178;28;20200;-80
2022/06/29 08:49:52;;;;;;;4.30;3.20;;;;;;;31.38;38.49;98512.34;6973549;28;20240;-80
2022/06/29 08:53:15;;;;;;;4.60;3.43;;;;;;;31.73;38.63;98516.31;6978959;28;20609;-81
2022/06/29 08:56:37;;;;;;;3.40;3.10;;;;;;;32.02;36.74;98497.31;6961353;28;20292;-80
2022/06/29 09:00:01;;;;;;;4.73;3.60;;;;;;;30.70;39.02;98496.38;6966047;28;20308;-81
2022/06/29 09:03:23;;;;;;;4.27;3.10;;;;;;;30.47;40.29;98503.44;6975390;28;20241;-80
2022/06/29 09:06:47;;;;;;;3.60;3.00;;;;;;;31.50;38.43;98476.94;7016961;28;20210;-81
2022/06/29 09:10:11;;;;;;;4.30;3.47;;;;;;;31.18;37.37;98507.63;6997089;28;20271;-82
2022/06/29 09:13:33;;;;;;;3.67;3.10;;;;;;;31.07;38.62;98484.97;6972423;28;20247;-80
2022/06/29 09:17:00;;;;;;;3.40;3.10;;;;;;;31.05;38.53;98504.03;6949393;28;20209;-81
2022/06/29 09:20:22;;;;;;;4.23;3.37;;;;;;;31.18;37.47;98491.78;6949632;28;20224;-82
2022/06/29 09:23:46;;;;;;;3.97;3.47;;;;;;;30.34;40.36;98497.03;6961623;28;20240;-82
2022/06/29 09:27:11;;;;;;;4.30;3.93;;;;;;;29.00;42.14;98478.03;6950197;28;20204;-80
2022/06/29 09:30:38;;;;;;;4.60;4.03;;;;;;;29.13;40.70;98446.47;6953060;28;20277;-81
2022/06/29 09:34:21;;;;;;;4.57;4.17;;;;;;;27.90;44.34;98498.38;6979806;28;20226;-82
2022/06/29 09:37:43;;;;;;;4.70;3.97;;;;;;;29.05;43.37;98469.53;6978314;28;20214;-80
2022/06/29 09:41:06;;;;;;;3.80;3.50;;;;;;;30.52;40.67;98472.63;6978763;28;20588;-81
2022/06/29 09:44:28;;;;;;;3.97;3.20;;;;;;;32.31;38.10;98494.25;6978261;28;20236;-82
2022/06/29 09:47:49;;;;;;;4.00;3.20;;;;;;;31.67;36.95;98501.75;6954252;28;20205;-81
2022/06/29 09:51:31;;;;;;;3.30;3.00;;;;;;;32.42;35.47;98487.00;6951279;28;20208;-82
2022/06/29 09:54:54;;;;;;;3.53;3.23;;;;;;;32.24;36.26;98479.25;6961166;28;20687;-82
2022/06/29 09:58:19;;;;;;;3.67;3.37;;;;;;;32.32;36.90;98507.03;6978327;28;20210;-81
2022/06/29 10:05:23;;;;;;;3.80;3.47;;;;;;;32.63;35.81;98492.38;6978385;28;20246;-81
2022/06/29 10:08:46;;;;;;;3.63;3.10;;;;;;;33.54;34.68;98490.09;6978436;28;20204;-84
2022/06/29 10:15:57;;;;;;;5.10;3.47;;;;;;;34.19;33.27;98489.25;6978532;28;20209;-82
2022/06/29 10:19:31;;;;;;;5.20;3.30;;;;;;;33.38;34.47;98472.50;6977891;28;20202;-81
2022/06/29 10:22:53;;;;;;;4.00;3.50;;;;;;;32.62;36.17;98494.38;6979726;28;20224;-80
2022/06/29 10:26:44;;;;;;;4.63;3.80;;;;;;;31.52;37.74;98496.06;6979569;28;20202;-81
2022/06/29 10:30:22;;;;;;;3.93;3.63;;;;;;;29.98;39.98;98480.13;6978652;28;20289;-81
2022/06/29 10:33:43;;;;;;;5.23;3.80;;;;;;;30.44;40.58;98496.59;6975122;28;20237;-82
2022/06/29 10:37:07;;;;;;;6.17;4.40;;;;;;;30.73;39.42;98492.94;6978589;28;20251;-81
2022/06/29 10:40:30;;;;;;;7.97;6.17;;;;;;;31.08;38.81;98494.97;6978858;28;20208;-80
2022/06/29 10:43:52;;;;;;;7.13;3.80;;;;;;;31.43;38.49;98459.16;6983713;28;20236;-81
2022/06/29 10:47:21;;;;;;;5.57;4.23;;;;;;;31.43;37.04;98482.25;6983980;28;20233;-81
2022/06/29 10:50:45;;;;;;;4.70;4.00;;;;;;;30.31;39.24;98488.56;6983374;28;20189;-81
2022/06/29 10:54:21;;;;;;;3.87;3.47;;;;;;;31.63;37.41;98484.13;6983492;28;20769;-81
2022/06/29 10:57:44;;;;;;;3.80;3.47;;;;;;;32.86;34.85;98465.53;6984329;28;20565;-82
2022/06/29 11:01:07;;;;;;;4.00;3.60;;;;;;;33.56;33.17;98440.22;6984340;28;20211;-81
2022/06/29 11:04:29;;;;;;;3.43;3.13;;;;;;;34.08;33.09;98474.19;6982901;28;20296;-82
2022/06/29 11:18:55;;;;;;;5.10;4.00;;;;;;;34.11;32.75;98458.66;6980844;28;20208;-81
2022/06/29 11:22:17;;;;;;;4.30;3.60;;;;;;;34.30;32.61;98428.72;6980453;28;20274;-81
2022/06/29 11:25:40;;;;;;;5.37;3.30;;;;;;;34.58;32.81;98446.09;6972345;28;20233;-81
2022/06/29 11:29:03;;;;;;;3.73;3.40;;;;;;;35.01;31.75;98434.50;6987357;28;20209;-81
2022/06/29 11:32:33;;;;;;;3.53;3.17;;;;;;;34.31;32.52;98451.94;6970838;28;20228;-81
2022/06/29 11:35:56;;;;;;;5.63;3.70;;;;;;;33.70;33.51;98437.75;6976357;28;20210;-81
2022/06/29 11:39:18;;;;;;;3.87;3.47;;;;;;;33.17;35.05;98449.59;6981069;28;20251;-80
2022/06/29 11:46:19;;;;;;;7.77;3.77;;;;;;;33.08;34.51;98436.97;6953978;28;20188;-81
2022/06/29 11:49:42;;;;;;;4.07;3.57;;;;;;;33.33;34.00;98432.84;6952051;28;20198;-81
2022/06/29 11:53:05;;;;;;;4.40;3.57;;;;;;;33.18;34.93;98430.81;6961877;28;20689;-81
2022/06/29 11:56:28;;;;;;;4.70;3.50;;;;;;;32.77;35.28;98428.59;6980252;28;20210;-82
2022/06/29 11:59:50;;;;;;;6.33;3.50;;;;;;;32.58;36.37;98429.25;6965388;28;20206;-82
2022/06/29 12:03:13;;;;;;;4.30;3.27;;;;;;;33.34;32.82;98410.13;6955838;28;20224;-81
2022/06/29 12:06:37;;;;;;;4.27;3.30;;;;;;;32.94;35.30;98425.41;6953838;28;20219;-81
2022/06/29 12:10:00;;;;;;;4.10;3.60;;;;;;;32.50;35.21;98382.78;6959827;28;20723;-82
2022/06/29 12:13:22;;;;;;;3.87;3.30;;;;;;;32.76;34.89;98424.16;6980295;28;20750;-82
2022/06/29 12:16:43;;;;;;;3.43;2.97;;;;;;;33.41;34.09;98415.88;6973380;28;20223;-81
2022/06/29 12:20:06;;;;;;;4.50;3.00;;;;;;;33.38;33.51;98404.63;6950670;28;20230;-82
2022/06/29 12:23:28;;;;;;;3.53;3.17;;;;;;;33.79;32.90;98415.97;6951884;28;20286;-81
2022/06/29 12:26:52;;;;;;;3.77;3.30;;;;;;;33.68;33.32;98374.94;6951320;28;20213;-82
2022/06/29 12:30:14;;;;;;;4.83;3.33;;;;;;;34.00;32.60;98401.66;6950099;28;20626;-81
2022/06/29 12:33:35;;;;;;;5.33;2.93;;;;;;;33.84;33.40;98395.31;6950413;28;20256;-80
2022/06/29 12:36:57;;;;;;;6.13;3.30;;;;;;;33.69;33.59;98401.75;6951803;28;20561;-82
2022/06/29 12:40:19;;;;;;;4.37;3.40;;;;;;;34.17;33.47;98409.59;6971973;28;20212;-81
2022/06/29 12:43:42;;;;;;;3.67;3.37;;;;;;;34.61;31.25;98408.94;6967600;28;20246;-82
2022/06/29 12:47:04;;;;;;;3.90;3.27;;;;;;;35.19;32.40;98415.22;6952143;28;20207;-82
2022/06/29 12:50:26;;;;;;;4.57;3.20;;;;;;;34.37;31.31;98414.84;6966793;28;20362;-82
2022/06/29 12:53:47;;;;;;;5.87;3.47;;;;;;;34.15;32.39;98409.19;6974542;28;20272;-82
2022/06/29 12:57:09;;;;;;;3.80;3.50;;;;;;;33.53;32.72;98409.34;6978701;28;20673;-82
2022/06/29 13:00:33;;;;;;;5.47;3.50;;;;;;;34.70;31.09;98395.50;6976265;28;20214;-82
2022/06/29 13:03:54;;;;;;;4.37;3.03;;;;;;;34.10;32.71;98407.50;6952857;28;20253;-82
2022/06/29 13:07:16;;;;;;;4.43;3.33;;;;;;;33.27;33.60;98387.59;6969924;28;20206;-82
2022/06/29 13:10:39;;;;;;;4.73;3.17;;;;;;;34.10;32.33;98410.28;6990492;28;20202;-83
2022/06/29 13:14:01;;;;;;;4.17;3.20;;;;;;;33.26;31.86;98408.28;6979103;28;20233;-82
2022/06/29 13:17:24;;;;;;;6.50;2.63;;;;;;;33.59;32.50;98402.31;6976565;28;20282;-82
2022/06/29 13:20:46;;;;;;;5.30;3.33;;;;;;;34.09;32.34;98413.44;6955946;28;20200;-81
2022/06/29 13:24:07;;;;;;;3.37;2.97;;;;;;;34.54;31.19;98411.59;6977802;28;20258;-82
2022/06/29 13:27:29;;;;;;;5.23;3.53;;;;;;;35.18;29.85;98399.56;6969797;28;20233;-82
2022/06/29 13:30:51;;;;;;;4.40;2.73;;;;;;;34.56;30.02;98405.63;6979346;28;20209;-82
2022/06/29 13:34:14;;;;;;;4.77;2.90;;;;;;;34.45;31.28;98399.00;6967939;28;20245;-81
2022/06/29 13:37:36;;;;;;;4.80;3.20;;;;;;;34.33;30.86;98394.41;6973478;28;20561;-82
2022/06/29 13:40:57;;;;;;;5.30;3.40;;;;;;;33.07;32.92;98369.09;6965290;28;20217;-82
2022/06/29 13:44:19;;;;;;;4.20;2.80;;;;;;;32.89;32.53;98372.66;6973743;28;20265;-81
2022/06/29 13:47:40;;;;;;;6.23;3.20;;;;;;;32.26;33.61;98398.81;6968197;28;20207;-83
2022/06/29 13:51:03;;;;;;;3.23;2.83;;;;;;;33.11;33.27;98378.38;6975643;28;20289;-80
2022/06/29 13:54:25;;;;;;;3.90;3.50;;;;;;;33.43;33.23;98371.59;6951155;28;20228;-82
2022/06/29 13:57:47;;;;;;;3.67;3.20;;;;;;;33.68;32.53;98383.34;6973479;28;20589;-80
2022/06/29 14:01:09;;;;;;;4.27;3.30;;;;;;;34.55;30.67;98382.41;6977550;28;20215;-83
2022/06/29 14:04:31;;;;;;;6.27;3.10;;;;;;;34.70;30.82;98387.09;6975496;28;20232;-82
2022/06/29 14:07:54;;;;;;;5.67;3.17;;;;;;;34.79;30.78;98392.50;6977723;28;20253;-83
2022/06/29 14:11:15;;;;;;;4.50;3.10;;;;;;;34.74;30.80;98387.97;6976462;28;20217;-80
2022/06/29 14:14:37;;;;;;;4.37;3.20;;;;;;;34.39;31.91;98378.09;6984671;28;20749;-80
2022/06/29 14:17:59;;;;;;;4.37;3.37;;;;;;;34.12;32.88;98384.72;6966499;28;20222;-81
2022/06/29 14:21:20;;;;;;;3.80;3.40;;;;;;;33.78;32.09;98375.22;6959501;28;20269;-81
2022/06/29 14:24:43;;;;;;;6.60;3.30;;;;;;;33.52;32.98;98369.41;6953947;28;20294;-81
2022/06/29 14:28:05;;;;;;;4.70;3.63;;;;;;;34.31;31.97;98371.53;6953368;28;20214;-80
2022/06/29 14:31:26;;;;;;;4.30;3.30;;;;;;;33.34;32.76;98306.69;6958812;28;20218;-81
2022/06/29 14:34:48;;;;;;;3.90;3.33;;;;;;;33.60;32.98;98362.78;6955775;28;20363;-81
2022/06/29 14:38:09;;;;;;;5.17;3.30;;;;;;;34.20;31.40;98350.91;6971827;28;20203;-81
2022/06/29 14:41:32;;;;;;;4.23;3.13;;;;;;;33.60;32.61;98360.00;6978086;28;20255;-81
2022/06/29 14:44:54;;;;;;;4.10;3.30;;;;;;;33.07;33.31;98359.94;6978563;28;20275;-81
2022/06/29 14:48:15;;;;;;;7.00;3.03;;;;;;;33.17;33.58;98359.34;6960118;28;20246;-81
2022/06/29 14:51:37;;;;;;;5.77;3.20;;;;;;;33.21;33.61;98366.66;6972836;28;20208;-80
2022/06/29 14:54:59;;;;;;;4.70;3.17;;;;;;;33.39;32.75;98358.72;6980991;28;20243;-80
2022/06/29 14:58:22;;;;;;;6.03;3.70;;;;;;;33.47;32.79;98357.69;6980148;28;20214;-82
2022/06/29 15:01:44;;;;;;;5.50;3.00;;;;;;;33.81;32.38;98351.28;6981518;28;20241;-81
2022/06/29 15:05:07;;;;;;;3.97;3.03;;;;;;;33.88;32.61;98337.44;6983350;28;20199;-81
2022/06/29 15:08:29;;;;;;;4.80;3.03;;;;;;;32.69;33.38;98321.44;6983690;28;20210;-81
2022/06/29 15:11:54;;;;;;;4.97;3.27;;;;;;;33.35;33.09;98325.09;7005312;28;20223;-81
2022/06/29 15:15:17;;;;;;;4.87;3.50;;;;;;;34.00;32.43;98331.69;6986881;28;20223;-81
2022/06/29 15:18:39;;;;;;;3.50;2.90;;;;;;;34.14;32.87;98321.59;6982685;28;20212;-82
2022/06/29 15:22:01;;;;;;;4.43;2.80;;;;;;;33.71;32.96;98316.28;6965241;28;20312;-82
2022/06/29 15:25:23;;;;;;;5.00;3.03;;;;;;;33.74;32.73;98337.94;6976993;28;20296;-81
2022/06/29 15:28:44;;;;;;;6.77;3.73;;;;;;;34.05;32.83;98326.63;6954149;28;20218;-81
2022/06/29 15:32:08;;;;;;;6.40;3.30;;;;;;;34.18;32.10;98325.28;6962998;28;20312;-82
2022/06/29 15:39:09;;;;;;;5.30;3.17;;;;;;;33.19;32.92;98329.88;6993745;28;20206;-81
2022/06/29 15:42:31;;;;;;;5.00;3.13;;;;;;;33.02;33.56;98293.94;6984805;28;20240;-81
2022/06/29 15:45:52;;;;;;;4.03;3.23;;;;;;;33.03;34.24;98317.09;6985383;28;20241;-81
2022/06/29 15:49:17;;;;;;;6.70;3.23;;;;;;;33.38;32.92;98309.56;6983558;28;20200;-82
2022/06/29 15:52:38;;;;;;;2.90;2.70;;;;;;;33.64;33.06;98310.56;6984873;28;20232;-81
2022/06/29 15:55:59;;;;;;;3.43;3.00;;;;;;;32.95;33.82;98259.47;6984361;28;20236;-81
2022/06/29 15:59:21;;;;;;;3.97;3.40;;;;;;;32.94;34.03;98299.72;6983712;28;20211;-81
2022/06/29 16:02:42;;;;;;;7.03;3.07;;;;;;;33.23;33.80;98274.88;6983630;28;20704;-82
2022/06/29 16:06:06;;;;;;;4.20;3.00;;;;;;;33.56;33.88;98308.78;6983673;28;20207;-81
2022/06/29 16:09:27;;;;;;;5.27;3.10;;;;;;;33.39;33.87;98295.25;6981660;28;21266;-81
2022/06/29 16:12:49;;;;;;;4.70;3.30;;;;;;;33.53;33.72;98294.72;6982918;28;20236;-81
2022/06/29 16:16:11;;;;;;;4.20;3.07;;;;;;;33.51;33.00;98295.09;6984249;28;20312;-81
2022/06/29 16:19:32;;;;;;;5.63;3.37;;;;;;;33.09;33.75;98280.16;6972684;28;20631;-81
2022/06/29 16:22:55;;;;;;;3.57;3.23;;;;;;;33.42;32.58;98260.16;6956668;28;20229;-82
2022/06/29 16:26:17;;;;;;;4.60;3.10;;;;;;;33.50;33.06;98287.06;6956424;28;20335;-82
2022/06/29 16:29:39;;;;;;;3.77;2.83;;;;;;;33.00;33.30;98287.09;6957142;28;20197;-82
2022/06/29 16:33:00;;;;;;;4.60;3.13;;;;;;;32.91;33.52;98278.91;6967613;28;20227;-81
2022/06/29 16:36:22;;;;;;;5.10;3.00;;;;;;;32.98;33.68;98278.28;6987277;28;20228;-82
2022/06/29 16:39:45;;;;;;;3.43;3.00;;;;;;;33.87;32.08;98271.50;6985741;28;20214;-82